Paradise, CA

6:48 PM PST on December 21, 2014 (GMT -0800)
Bennett | Change Station
CLOSE
Current Station
Personal Weather Station
Location: Paradise, CA
Elevation: 1568 ft
Nearby Weather Stations

Elev 1568 ft 39.74 °N, 121.60 °W | Updated 5 seconds ago

Overcast
Overcast
53.6 °F
Feels Like 53.6 °F
N
0.0
Wind Variable Wind from North
Gusts 0.0 mph

Today
High -- | Low -- °F
--% Chance of Precip.
Yesterday
High -- | Low -- °F
Precip. -- in
7:23 AM 4:45 PM
New Moon, 0% visible
Pressure 30.27 in
Visibility 10.0 miles
Clouds Few 700 ft
Overcast 2000 ft
Dew Point 46 °F
Humidity 76%
Rainfall 0.18 in
Snow Depth Not available.
UV 0 out of 12
Pollen .50 out of 12
Air Quality Not available.
Flu Activity Not available.
METAR KCIC 220156Z 32005KT 10SM FEW007 OVC020 14/14 A3027

More Conditions Fewer Conditions

Pressure 30.27 in
Visibility 10.0 miles
Clouds Few 700 ft
Overcast 2000 ft
Dew Point 46 °F
Humidity 76%
Rainfall 0.18 in
Snow Depth Not available.
UV 0 out of 12
Pollen .50 out of 12
Air Quality Not available.
Flu Activity Not available.
METAR KCIC 220156Z 32005KT 10SM FEW007 OVC020 14/14 A3027

More Conditions Fewer Conditions

10-Day Weather Forecast

Almanac

Astronomy

Dec. 21, 2014 Rise Set
Actual Time
Civil Twilight
Nautical Twilight
Astronomical Twilight
Moon
Length of Visible Light
Length of Day
Tomorrow will be .
, % of the Moon is Illuminated

Today's Extremes

State Highs State Lows

Community

WunderPhotos

Upload Photos

1,779,528 photos uploaded!

WunderBlogs® & News

Nearby

Air Quality

  Air Quality AQ Index Pollutant
Not available.

Snow Depth

Station Depth Elevation

Earthquake Activity

City Distance Mag. Time & Date
Minimum magnitude displayed is 2.5.

Coastal Water Temperatures

Place Temperature

Nearby Weather Stations